sensor_id;sensor_type;location;lat;lon;timestamp;temperature;humidity
29725;DHT22;16636;48.394;15.468;2023-03-14T00:00:57;7.20;99.90
29725;DHT22;16636;48.394;15.468;2023-03-14T00:03:23;7.20;99.90
29725;DHT22;16636;48.394;15.468;2023-03-14T00:05:49;7.20;99.90
29725;DHT22;16636;48.394;15.468;2023-03-14T00:08:15;7.10;99.90
29725;DHT22;16636;48.394;15.468;2023-03-14T00:10:41;7.10;99.90
29725;DHT22;16636;48.394;15.468;2023-03-14T00:13:07;7.00;99.90
29725;DHT22;16636;48.394;15.468;2023-03-14T00:15:33;7.00;99.90
29725;DHT22;16636;48.394;15.468;2023-03-14T00:17:59;6.90;99.90
29725;DHT22;16636;48.394;15.468;2023-03-14T00:20:25;6.90;99.90
29725;DHT22;16636;48.394;15.468;2023-03-14T00:22:51;6.90;99.90
29725;DHT22;16636;48.394;15.468;2023-03-14T00:25:17;6.90;99.90
29725;DHT22;16636;48.394;15.468;2023-03-14T00:27:43;6.90;99.90
29725;DHT22;16636;48.394;15.468;2023-03-14T00:30:12;6.90;99.90
29725;DHT22;16636;48.394;15.468;2023-03-14T00:32:38;6.80;99.90
29725;DHT22;16636;48.394;15.468;2023-03-14T00:35:04;6.80;99.90
29725;DHT22;16636;48.394;15.468;2023-03-14T00:37:30;6.80;99.90
29725;DHT22;16636;48.394;15.468;2023-03-14T00:39:56;6.80;99.90
29725;DHT22;16636;48.394;15.468;2023-03-14T00:49:22;6.80;99.90
29725;DHT22;16636;48.394;15.468;2023-03-14T00:51:50;6.80;99.90
29725;DHT22;16636;48.394;15.468;2023-03-14T00:54:17;6.80;99.90
29725;DHT22;16636;48.394;15.468;2023-03-14T00:56:43;6.80;99.90
29725;DHT22;16636;48.394;15.468;2023-03-14T00:59:09;6.80;99.90
29725;DHT22;16636;48.394;15.468;2023-03-14T01:01:35;6.80;99.90
29725;DHT22;16636;48.394;15.468;2023-03-14T01:04:01;6.80;99.90
29725;DHT22;16636;48.394;15.468;2023-03-14T01:06:28;6.70;99.90
29725;DHT22;16636;48.394;15.468;2023-03-14T01:08:54;6.80;99.90
29725;DHT22;16636;48.394;15.468;2023-03-14T01:11:22;6.70;99.90
29725;DHT22;16636;48.394;15.468;2023-03-14T01:13:50;6.70;99.90
29725;DHT22;16636;48.394;15.468;2023-03-14T01:16:17;6.70;99.90
29725;DHT22;16636;48.394;15.468;2023-03-14T01:18:43;6.70;99.90
29725;DHT22;16636;48.394;15.468;2023-03-14T01:21:11;6.70;99.90
29725;DHT22;16636;48.394;15.468;2023-03-14T01:23:37;6.60;99.90
29725;DHT22;16636;48.394;15.468;2023-03-14T01:26:03;6.60;99.90
29725;DHT22;16636;48.394;15.468;2023-03-14T01:28:29;6.60;99.90
29725;DHT22;16636;48.394;15.468;2023-03-14T01:30:55;6.50;99.90
29725;DHT22;16636;48.394;15.468;2023-03-14T01:33:21;6.50;99.90
29725;DHT22;16636;48.394;15.468;2023-03-14T01:35:49;6.50;99.90
29725;DHT22;16636;48.394;15.468;2023-03-14T01:38:15;6.50;99.90
29725;DHT22;16636;48.394;15.468;2023-03-14T01:40:44;6.50;99.90
29725;DHT22;16636;48.394;15.468;2023-03-14T01:43:15;6.50;99.90
29725;DHT22;16636;48.394;15.468;2023-03-14T01:48:27;6.40;99.90
29725;DHT22;16636;48.394;15.468;2023-03-14T01:50:54;6.50;99.90
29725;DHT22;16636;48.394;15.468;2023-03-14T01:53:20;6.40;99.90
29725;DHT22;16636;48.394;15.468;2023-03-14T01:55:47;6.40;99.90
29725;DHT22;16636;48.394;15.468;2023-03-14T01:58:14;6.40;99.90
29725;DHT22;16636;48.394;15.468;2023-03-14T02:00:40;6.40;99.90
29725;DHT22;16636;48.394;15.468;2023-03-14T02:03:07;6.40;99.90
29725;DHT22;16636;48.394;15.468;2023-03-14T02:05:37;6.40;99.90
29725;DHT22;16636;48.394;15.468;2023-03-14T02:08:10;6.40;99.90
29725;DHT22;16636;48.394;15.468;2023-03-14T02:10:44;6.30;99.90
29725;DHT22;16636;48.394;15.468;2023-03-14T02:13:11;6.30;99.90
29725;DHT22;16636;48.394;15.468;2023-03-14T02:16:16;6.30;99.90
29725;DHT22;16636;48.394;15.468;2023-03-14T02:19:39;6.30;99.90
29725;DHT22;16636;48.394;15.468;2023-03-14T02:22:19;6.30;99.90
29725;DHT22;16636;48.394;15.468;2023-03-14T02:27:21;6.10;99.90
29725;DHT22;16636;48.394;15.468;2023-03-14T02:32:19;6.20;99.90
29725;DHT22;16636;48.394;15.468;2023-03-14T02:34:47;6.10;99.90
29725;DHT22;16636;48.394;15.468;2023-03-14T02:37:15;6.20;99.90
29725;DHT22;16636;48.394;15.468;2023-03-14T02:39:43;6.20;99.90
29725;DHT22;16636;48.394;15.468;2023-03-14T02:42:11;6.20;99.90
29725;DHT22;16636;48.394;15.468;2023-03-14T02:44:47;6.20;99.90
29725;DHT22;16636;48.394;15.468;2023-03-14T02:47:12;6.20;99.90
29725;DHT22;16636;48.394;15.468;2023-03-14T02:49:38;6.30;99.90
29725;DHT22;16636;48.394;15.468;2023-03-14T02:52:04;6.30;99.90
29725;DHT22;16636;48.394;15.468;2023-03-14T02:54:31;6.20;99.90
29725;DHT22;16636;48.394;15.468;2023-03-14T02:56:57;6.30;99.90
29725;DHT22;16636;48.394;15.468;2023-03-14T02:59:23;6.20;99.90
29725;DHT22;16636;48.394;15.468;2023-03-14T03:01:56;6.20;99.90
29725;DHT22;16636;48.394;15.468;2023-03-14T03:04:24;6.20;99.90
29725;DHT22;16636;48.394;15.468;2023-03-14T03:06:50;6.20;99.90
29725;DHT22;16636;48.394;15.468;2023-03-14T03:09:16;6.30;99.90
29725;DHT22;16636;48.394;15.468;2023-03-14T03:11:42;6.20;99.90
29725;DHT22;16636;48.394;15.468;2023-03-14T03:14:11;6.30;99.90
29725;DHT22;16636;48.394;15.468;2023-03-14T03:16:37;6.30;99.90
29725;DHT22;16636;48.394;15.468;2023-03-14T03:19:03;6.30;99.90
29725;DHT22;16636;48.394;15.468;2023-03-14T03:21:29;6.20;99.90
29725;DHT22;16636;48.394;15.468;2023-03-14T03:23:55;6.20;99.90
29725;DHT22;16636;48.394;15.468;2023-03-14T03:26:21;6.20;99.90
29725;DHT22;16636;48.394;15.468;2023-03-14T03:28:47;6.20;99.90
29725;DHT22;16636;48.394;15.468;2023-03-14T03:31:15;6.20;99.90
29725;DHT22;16636;48.394;15.468;2023-03-14T03:33:40;6.20;99.90
29725;DHT22;16636;48.394;15.468;2023-03-14T03:36:07;6.10;99.90
29725;DHT22;16636;48.394;15.468;2023-03-14T03:38:36;6.10;99.90
29725;DHT22;16636;48.394;15.468;2023-03-14T03:41:06;6.20;99.90
29725;DHT22;16636;48.394;15.468;2023-03-14T03:43:32;6.10;99.90
29725;DHT22;16636;48.394;15.468;2023-03-14T03:46:03;6.10;99.90
29725;DHT22;16636;48.394;15.468;2023-03-14T03:48:31;6.20;99.90
29725;DHT22;16636;48.394;15.468;2023-03-14T03:50:57;6.10;99.90
29725;DHT22;16636;48.394;15.468;2023-03-14T03:53:22;6.10;99.90
29725;DHT22;16636;48.394;15.468;2023-03-14T03:55:48;6.10;99.90
29725;DHT22;16636;48.394;15.468;2023-03-14T03:58:15;6.10;99.90
29725;DHT22;16636;48.394;15.468;2023-03-14T04:00:44;6.10;99.90
29725;DHT22;16636;48.394;15.468;2023-03-14T04:03:10;6.00;99.90
29725;DHT22;16636;48.394;15.468;2023-03-14T04:05:36;6.10;99.90
29725;DHT22;16636;48.394;15.468;2023-03-14T04:08:07;6.00;99.90
29725;DHT22;16636;48.394;15.468;2023-03-14T04:10:34;6.00;99.90
29725;DHT22;16636;48.394;15.468;2023-03-14T04:13:06;6.00;99.90
29725;DHT22;16636;48.394;15.468;2023-03-14T04:15:34;6.00;99.90
29725;DHT22;16636;48.394;15.468;2023-03-14T04:18:06;5.90;99.90
29725;DHT22;16636;48.394;15.468;2023-03-14T04:20:33;5.90;99.90
29725;DHT22;16636;48.394;15.468;2023-03-14T04:22:59;5.90;99.90
29725;DHT22;16636;48.394;15.468;2023-03-14T04:25:26;5.90;99.90
29725;DHT22;16636;48.394;15.468;2023-03-14T04:27:55;5.90;99.90
29725;DHT22;16636;48.394;15.468;2023-03-14T04:30:24;5.90;99.90
29725;DHT22;16636;48.394;15.468;2023-03-14T04:32:53;5.90;99.90
29725;DHT22;16636;48.394;15.468;2023-03-14T04:35:30;6.00;99.90
29725;DHT22;16636;48.394;15.468;2023-03-14T04:37:59;6.00;99.90
29725;DHT22;16636;48.394;15.468;2023-03-14T04:40:26;6.10;99.90
29725;DHT22;16636;48.394;15.468;2023-03-14T04:42:56;6.10;99.90
29725;DHT22;16636;48.394;15.468;2023-03-14T04:45:22;6.10;99.90
29725;DHT22;16636;48.394;15.468;2023-03-14T04:47:48;6.10;99.90
29725;DHT22;16636;48.394;15.468;2023-03-14T04:50:18;6.10;99.90
29725;DHT22;16636;48.394;15.468;2023-03-14T04:52:44;6.10;99.90
29725;DHT22;16636;48.394;15.468;2023-03-14T04:55:11;6.20;99.90
29725;DHT22;16636;48.394;15.468;2023-03-14T04:57:37;6.20;99.90
29725;DHT22;16636;48.394;15.468;2023-03-14T05:00:06;6.20;99.90
29725;DHT22;16636;48.394;15.468;2023-03-14T05:02:55;6.10;99.90
29725;DHT22;16636;48.394;15.468;2023-03-14T05:05:56;6.20;99.90
29725;DHT22;16636;48.394;15.468;2023-03-14T05:08:42;6.20;99.90
29725;DHT22;16636;48.394;15.468;2023-03-14T05:11:11;6.10;99.90
29725;DHT22;16636;48.394;15.468;2023-03-14T05:14:01;6.10;99.90
29725;DHT22;16636;48.394;15.468;2023-03-14T05:16:45;6.10;99.90
29725;DHT22;16636;48.394;15.468;2023-03-14T05:19:26;6.10;99.90
29725;DHT22;16636;48.394;15.468;2023-03-14T05:22:11;6.10;99.90
29725;DHT22;16636;48.394;15.468;2023-03-14T05:24:55;6.10;99.90
29725;DHT22;16636;48.394;15.468;2023-03-14T05:27:42;6.20;99.90
29725;DHT22;16636;48.394;15.468;2023-03-14T05:30:30;6.20;99.90
29725;DHT22;16636;48.394;15.468;2023-03-14T05:33:12;6.20;99.90
29725;DHT22;16636;48.394;15.468;2023-03-14T05:35:50;6.20;99.90
29725;DHT22;16636;48.394;15.468;2023-03-14T05:38:30;6.20;99.90
29725;DHT22;16636;48.394;15.468;2023-03-14T05:40:55;6.20;99.90
29725;DHT22;16636;48.394;15.468;2023-03-14T05:43:40;6.20;99.90
29725;DHT22;16636;48.394;15.468;2023-03-14T05:46:25;6.30;99.90
29725;DHT22;16636;48.394;15.468;2023-03-14T05:49:00;6.20;99.90
29725;DHT22;16636;48.394;15.468;2023-03-14T05:51:46;6.20;99.90
29725;DHT22;16636;48.394;15.468;2023-03-14T05:54:32;6.20;99.90
29725;DHT22;16636;48.394;15.468;2023-03-14T05:57:27;6.20;99.90
29725;DHT22;16636;48.394;15.468;2023-03-14T06:00:13;6.30;99.90
29725;DHT22;16636;48.394;15.468;2023-03-14T06:02:44;6.30;99.90
29725;DHT22;16636;48.394;15.468;2023-03-14T06:05:19;6.30;99.90
29725;DHT22;16636;48.394;15.468;2023-03-14T06:07:46;6.30;99.90
29725;DHT22;16636;48.394;15.468;2023-03-14T06:10:12;6.40;99.90
29725;DHT22;16636;48.394;15.468;2023-03-14T06:12:37;6.40;99.90
29725;DHT22;16636;48.394;15.468;2023-03-14T06:15:03;6.40;99.90
29725;DHT22;16636;48.394;15.468;2023-03-14T06:17:42;6.50;99.90
29725;DHT22;16636;48.394;15.468;2023-03-14T06:20:11;6.70;99.90
29725;DHT22;16636;48.394;15.468;2023-03-14T06:22:38;7.50;99.90
29725;DHT22;16636;48.394;15.468;2023-03-14T06:25:05;8.30;99.90
29725;DHT22;16636;48.394;15.468;2023-03-14T06:27:31;8.70;99.90
29725;DHT22;16636;48.394;15.468;2023-03-14T06:29:57;9.20;99.90
29725;DHT22;16636;48.394;15.468;2023-03-14T06:32:24;9.50;99.90
29725;DHT22;16636;48.394;15.468;2023-03-14T06:34:53;9.70;99.90
29725;DHT22;16636;48.394;15.468;2023-03-14T06:37:19;9.80;99.90
29725;DHT22;16636;48.394;15.468;2023-03-14T06:39:47;9.80;99.90
29725;DHT22;16636;48.394;15.468;2023-03-14T06:42:22;9.90;99.90
29725;DHT22;16636;48.394;15.468;2023-03-14T06:44:48;10.00;99.90
29725;DHT22;16636;48.394;15.468;2023-03-14T06:47:15;10.20;99.90
29725;DHT22;16636;48.394;15.468;2023-03-14T06:49:44;10.20;99.90
29725;DHT22;16636;48.394;15.468;2023-03-14T06:52:11;10.20;99.90
29725;DHT22;16636;48.394;15.468;2023-03-14T06:54:37;10.10;99.90
29725;DHT22;16636;48.394;15.468;2023-03-14T06:57:06;10.10;99.90
29725;DHT22;16636;48.394;15.468;2023-03-14T06:59:39;10.20;99.90
29725;DHT22;16636;48.394;15.468;2023-03-14T07:02:07;10.20;99.90
29725;DHT22;16636;48.394;15.468;2023-03-14T07:04:33;10.20;99.90
29725;DHT22;16636;48.394;15.468;2023-03-14T07:06:59;10.20;99.90
29725;DHT22;16636;48.394;15.468;2023-03-14T07:09:25;10.20;99.90
29725;DHT22;16636;48.394;15.468;2023-03-14T07:11:57;10.20;99.90
29725;DHT22;16636;48.394;15.468;2023-03-14T07:14:28;10.20;99.90
29725;DHT22;16636;48.394;15.468;2023-03-14T07:16:55;10.20;99.90
29725;DHT22;16636;48.394;15.468;2023-03-14T07:19:23;10.30;99.90
29725;DHT22;16636;48.394;15.468;2023-03-14T07:21:52;10.30;99.90
29725;DHT22;16636;48.394;15.468;2023-03-14T07:24:24;10.30;99.90
29725;DHT22;16636;48.394;15.468;2023-03-14T07:26:49;10.20;99.90
29725;DHT22;16636;48.394;15.468;2023-03-14T07:29:15;10.30;99.90
29725;DHT22;16636;48.394;15.468;2023-03-14T07:31:41;10.30;99.90
29725;DHT22;16636;48.394;15.468;2023-03-14T07:34:07;10.40;99.90
29725;DHT22;16636;48.394;15.468;2023-03-14T07:36:37;10.50;99.90
29725;DHT22;16636;48.394;15.468;2023-03-14T07:39:03;10.50;99.90
29725;DHT22;16636;48.394;15.468;2023-03-14T07:41:39;10.50;99.90
29725;DHT22;16636;48.394;15.468;2023-03-14T07:44:23;10.50;99.90
29725;DHT22;16636;48.394;15.468;2023-03-14T07:46:49;10.60;99.90
29725;DHT22;16636;48.394;15.468;2023-03-14T07:49:16;10.50;99.90
29725;DHT22;16636;48.394;15.468;2023-03-14T07:51:42;10.60;99.90
29725;DHT22;16636;48.394;15.468;2023-03-14T07:54:09;10.60;99.90
29725;DHT22;16636;48.394;15.468;2023-03-14T07:56:35;10.50;99.90
29725;DHT22;16636;48.394;15.468;2023-03-14T07:59:01;10.40;99.90
29725;DHT22;16636;48.394;15.468;2023-03-14T08:01:27;10.40;99.90
29725;DHT22;16636;48.394;15.468;2023-03-14T08:03:53;10.40;99.90
29725;DHT22;16636;48.394;15.468;2023-03-14T08:06:19;10.30;99.90
29725;DHT22;16636;48.394;15.468;2023-03-14T08:08:44;10.30;99.90
29725;DHT22;16636;48.394;15.468;2023-03-14T08:11:10;10.40;99.90
29725;DHT22;16636;48.394;15.468;2023-03-14T08:13:37;10.40;99.90
29725;DHT22;16636;48.394;15.468;2023-03-14T08:16:03;10.40;99.90
29725;DHT22;16636;48.394;15.468;2023-03-14T08:18:29;10.40;99.90
29725;DHT22;16636;48.394;15.468;2023-03-14T08:20:55;10.50;99.90
29725;DHT22;16636;48.394;15.468;2023-03-14T08:23:21;10.50;99.90
29725;DHT22;16636;48.394;15.468;2023-03-14T08:25:50;10.50;99.90
29725;DHT22;16636;48.394;15.468;2023-03-14T08:28:16;10.50;99.90
29725;DHT22;16636;48.394;15.468;2023-03-14T08:30:42;10.70;99.90
29725;DHT22;16636;48.394;15.468;2023-03-14T08:33:08;10.70;99.90
29725;DHT22;16636;48.394;15.468;2023-03-14T08:35:34;10.70;99.90
29725;DHT22;16636;48.394;15.468;2023-03-14T08:37:59;10.80;99.90
29725;DHT22;16636;48.394;15.468;2023-03-14T08:40:25;10.90;99.90
29725;DHT22;16636;48.394;15.468;2023-03-14T08:42:51;10.80;99.90
29725;DHT22;16636;48.394;15.468;2023-03-14T08:45:17;10.80;99.90
29725;DHT22;16636;48.394;15.468;2023-03-14T08:47:43;10.80;99.90
29725;DHT22;16636;48.394;15.468;2023-03-14T08:50:10;10.90;99.90
29725;DHT22;16636;48.394;15.468;2023-03-14T08:52:36;10.90;99.90
29725;DHT22;16636;48.394;15.468;2023-03-14T08:55:09;10.90;99.90
29725;DHT22;16636;48.394;15.468;2023-03-14T08:57:35;10.90;99.90
29725;DHT22;16636;48.394;15.468;2023-03-14T09:00:02;11.00;99.90
29725;DHT22;16636;48.394;15.468;2023-03-14T09:02:30;11.10;99.90
29725;DHT22;16636;48.394;15.468;2023-03-14T09:04:56;11.20;99.90
29725;DHT22;16636;48.394;15.468;2023-03-14T09:07:22;11.20;99.90
29725;DHT22;16636;48.394;15.468;2023-03-14T09:09:47;11.20;99.90
29725;DHT22;16636;48.394;15.468;2023-03-14T09:12:13;11.30;99.90
29725;DHT22;16636;48.394;15.468;2023-03-14T09:14:39;11.40;99.90
29725;DHT22;16636;48.394;15.468;2023-03-14T09:17:05;11.40;99.90
29725;DHT22;16636;48.394;15.468;2023-03-14T09:19:31;11.50;99.90
29725;DHT22;16636;48.394;15.468;2023-03-14T09:21:57;11.50;99.90
29725;DHT22;16636;48.394;15.468;2023-03-14T09:24:22;11.50;99.90
29725;DHT22;16636;48.394;15.468;2023-03-14T09:26:48;11.50;99.90
29725;DHT22;16636;48.394;15.468;2023-03-14T09:29:14;11.50;99.90
29725;DHT22;16636;48.394;15.468;2023-03-14T09:31:40;11.60;99.90
29725;DHT22;16636;48.394;15.468;2023-03-14T09:34:06;11.60;99.90
29725;DHT22;16636;48.394;15.468;2023-03-14T09:36:32;11.50;99.90
29725;DHT22;16636;48.394;15.468;2023-03-14T09:38:57;11.60;99.90
29725;DHT22;16636;48.394;15.468;2023-03-14T09:41:31;11.60;99.90
29725;DHT22;16636;48.394;15.468;2023-03-14T09:44:11;11.60;99.90
29725;DHT22;16636;48.394;15.468;2023-03-14T09:46:38;11.60;99.90
29725;DHT22;16636;48.394;15.468;2023-03-14T09:49:12;11.60;99.90
29725;DHT22;16636;48.394;15.468;2023-03-14T09:51:40;11.60;99.90
29725;DHT22;16636;48.394;15.468;2023-03-14T09:54:06;11.70;99.90
29725;DHT22;16636;48.394;15.468;2023-03-14T09:56:40;11.80;99.90
29725;DHT22;16636;48.394;15.468;2023-03-14T09:59:08;11.80;99.90
29725;DHT22;16636;48.394;15.468;2023-03-14T10:01:38;11.80;99.90
29725;DHT22;16636;48.394;15.468;2023-03-14T10:04:11;11.90;99.90
29725;DHT22;16636;48.394;15.468;2023-03-14T10:06:38;11.90;99.90
29725;DHT22;16636;48.394;15.468;2023-03-14T10:09:04;11.90;99.90
29725;DHT22;16636;48.394;15.468;2023-03-14T10:11:31;11.90;99.90
29725;DHT22;16636;48.394;15.468;2023-03-14T10:16:28;11.90;99.90
29725;DHT22;16636;48.394;15.468;2023-03-14T10:18:54;11.90;99.90
29725;DHT22;16636;48.394;15.468;2023-03-14T10:21:27;11.80;99.90
29725;DHT22;16636;48.394;15.468;2023-03-14T10:23:54;11.80;99.90
29725;DHT22;16636;48.394;15.468;2023-03-14T10:26:29;11.80;99.90
29725;DHT22;16636;48.394;15.468;2023-03-14T10:29:11;11.70;99.90
29725;DHT22;16636;48.394;15.468;2023-03-14T10:31:50;11.70;99.90
29725;DHT22;16636;48.394;15.468;2023-03-14T10:34:20;11.70;99.90
29725;DHT22;16636;48.394;15.468;2023-03-14T10:36:46;11.60;99.90
29725;DHT22;16636;48.394;15.468;2023-03-14T10:41:47;11.60;99.90
29725;DHT22;16636;48.394;15.468;2023-03-14T10:44:13;11.60;99.90
29725;DHT22;16636;48.394;15.468;2023-03-14T10:46:40;11.50;99.90
29725;DHT22;16636;48.394;15.468;2023-03-14T10:49:27;11.50;99.90
29725;DHT22;16636;48.394;15.468;2023-03-14T10:51:53;11.50;99.90
29725;DHT22;16636;48.394;15.468;2023-03-14T10:54:20;11.60;99.90
29725;DHT22;16636;48.394;15.468;2023-03-14T10:56:55;11.60;99.90
29725;DHT22;16636;48.394;15.468;2023-03-14T10:59:21;11.60;99.90
29725;DHT22;16636;48.394;15.468;2023-03-14T11:01:55;11.60;99.90
29725;DHT22;16636;48.394;15.468;2023-03-14T11:09:31;11.50;99.90
29725;DHT22;16636;48.394;15.468;2023-03-14T11:12:41;11.50;99.90
29725;DHT22;16636;48.394;15.468;2023-03-14T11:14:48;11.50;99.90
29725;DHT22;16636;48.394;15.468;2023-03-14T11:27:21;11.40;99.90
29725;DHT22;16636;48.394;15.468;2023-03-14T11:29:53;11.40;99.90
29725;DHT22;16636;48.394;15.468;2023-03-14T11:32:24;11.40;99.90
29725;DHT22;16636;48.394;15.468;2023-03-14T11:34:54;11.40;99.90
29725;DHT22;16636;48.394;15.468;2023-03-14T11:39:47;11.40;99.90
29725;DHT22;16636;48.394;15.468;2023-03-14T11:42:17;11.40;99.90
29725;DHT22;16636;48.394;15.468;2023-03-14T11:44:46;11.40;99.90
29725;DHT22;16636;48.394;15.468;2023-03-14T11:47:20;11.40;99.90
29725;DHT22;16636;48.394;15.468;2023-03-14T11:52:20;11.30;99.90
29725;DHT22;16636;48.394;15.468;2023-03-14T11:57:22;11.20;99.90
29725;DHT22;16636;48.394;15.468;2023-03-14T12:07:29;11.10;99.90
29725;DHT22;16636;48.394;15.468;2023-03-14T12:09:55;11.00;99.90
29725;DHT22;16636;48.394;15.468;2023-03-14T12:12:22;11.00;99.90
29725;DHT22;16636;48.394;15.468;2023-03-14T12:14:58;11.00;99.90
29725;DHT22;16636;48.394;15.468;2023-03-14T12:17:34;10.90;99.90
29725;DHT22;16636;48.394;15.468;2023-03-14T12:20:17;10.90;99.90
29725;DHT22;16636;48.394;15.468;2023-03-14T12:22:53;10.90;99.90
29725;DHT22;16636;48.394;15.468;2023-03-14T12:25:21;10.80;99.90
29725;DHT22;16636;48.394;15.468;2023-03-14T12:35:37;10.70;99.90
29725;DHT22;16636;48.394;15.468;2023-03-14T12:38:04;10.70;99.90
29725;DHT22;16636;48.394;15.468;2023-03-14T12:40:31;10.70;99.90
29725;DHT22;16636;48.394;15.468;2023-03-14T12:43:02;10.70;99.90
29725;DHT22;16636;48.394;15.468;2023-03-14T12:45:30;10.70;99.90
29725;DHT22;16636;48.394;15.468;2023-03-14T12:51:26;10.70;99.90
29725;DHT22;16636;48.394;15.468;2023-03-14T13:00:59;10.70;99.90
29725;DHT22;16636;48.394;15.468;2023-03-14T13:03:26;10.70;99.90
29725;DHT22;16636;48.394;15.468;2023-03-14T13:05:55;10.70;99.90
29725;DHT22;16636;48.394;15.468;2023-03-14T13:11:21;10.70;99.90
29725;DHT22;16636;48.394;15.468;2023-03-14T13:13:57;10.70;99.90
29725;DHT22;16636;48.394;15.468;2023-03-14T13:16:24;10.70;99.90
29725;DHT22;16636;48.394;15.468;2023-03-14T13:18:58;10.70;99.90
29725;DHT22;16636;48.394;15.468;2023-03-14T13:21:25;10.70;99.90
29725;DHT22;16636;48.394;15.468;2023-03-14T13:23:56;10.70;99.90
29725;DHT22;16636;48.394;15.468;2023-03-14T13:26:25;10.70;99.90
29725;DHT22;16636;48.394;15.468;2023-03-14T13:28:53;10.70;99.90
29725;DHT22;16636;48.394;15.468;2023-03-14T13:31:23;10.80;99.90
29725;DHT22;16636;48.394;15.468;2023-03-14T13:34:04;10.80;99.90
29725;DHT22;16636;48.394;15.468;2023-03-14T13:36:33;10.80;99.90
29725;DHT22;16636;48.394;15.468;2023-03-14T13:38:59;10.80;99.90
29725;DHT22;16636;48.394;15.468;2023-03-14T13:41:27;10.80;99.90
29725;DHT22;16636;48.394;15.468;2023-03-14T13:44:02;10.80;99.90
29725;DHT22;16636;48.394;15.468;2023-03-14T13:46:28;10.80;99.90
29725;DHT22;16636;48.394;15.468;2023-03-14T13:48:55;10.80;99.90
29725;DHT22;16636;48.394;15.468;2023-03-14T13:51:21;10.80;99.90
29725;DHT22;16636;48.394;15.468;2023-03-14T13:53:51;10.80;99.90
29725;DHT22;16636;48.394;15.468;2023-03-14T13:56:19;10.80;99.90
29725;DHT22;16636;48.394;15.468;2023-03-14T13:58:45;10.80;99.90
29725;DHT22;16636;48.394;15.468;2023-03-14T14:01:30;10.80;99.90
29725;DHT22;16636;48.394;15.468;2023-03-14T14:03:59;10.80;99.90
29725;DHT22;16636;48.394;15.468;2023-03-14T14:06:30;10.80;99.90
29725;DHT22;16636;48.394;15.468;2023-03-14T14:08:58;10.80;99.90
29725;DHT22;16636;48.394;15.468;2023-03-14T14:14:27;10.80;99.90
29725;DHT22;16636;48.394;15.468;2023-03-14T14:16:56;10.90;99.90
29725;DHT22;16636;48.394;15.468;2023-03-14T14:19:24;10.90;99.90
29725;DHT22;16636;48.394;15.468;2023-03-14T14:21:51;10.90;99.90
29725;DHT22;16636;48.394;15.468;2023-03-14T14:24:17;10.90;99.90
29725;DHT22;16636;48.394;15.468;2023-03-14T14:26:59;10.90;99.90
29725;DHT22;16636;48.394;15.468;2023-03-14T14:34:58;10.90;99.90
29725;DHT22;16636;48.394;15.468;2023-03-14T14:37:29;10.90;99.90
29725;DHT22;16636;48.394;15.468;2023-03-14T14:39:57;11.00;99.90
29725;DHT22;16636;48.394;15.468;2023-03-14T14:42:25;11.00;99.90
29725;DHT22;16636;48.394;15.468;2023-03-14T14:44:52;11.10;99.90
29725;DHT22;16636;48.394;15.468;2023-03-14T14:47:20;11.10;99.90
29725;DHT22;16636;48.394;15.468;2023-03-14T14:49:48;11.10;99.90
29725;DHT22;16636;48.394;15.468;2023-03-14T14:52:20;11.00;99.90
29725;DHT22;16636;48.394;15.468;2023-03-14T14:54:46;11.00;99.90
29725;DHT22;16636;48.394;15.468;2023-03-14T14:57:33;11.00;99.90
29725;DHT22;16636;48.394;15.468;2023-03-14T15:00:06;11.00;99.90
29725;DHT22;16636;48.394;15.468;2023-03-14T15:02:36;11.00;99.90
29725;DHT22;16636;48.394;15.468;2023-03-14T15:05:08;10.90;99.90
29725;DHT22;16636;48.394;15.468;2023-03-14T15:07:37;10.90;99.90
29725;DHT22;16636;48.394;15.468;2023-03-14T15:10:03;10.90;99.90
29725;DHT22;16636;48.394;15.468;2023-03-14T15:12:29;10.80;99.90
29725;DHT22;16636;48.394;15.468;2023-03-14T15:14:55;10.90;99.90
29725;DHT22;16636;48.394;15.468;2023-03-14T15:17:23;10.80;99.90
29725;DHT22;16636;48.394;15.468;2023-03-14T15:19:50;10.90;99.90
29725;DHT22;16636;48.394;15.468;2023-03-14T15:22:15;11.00;99.90
29725;DHT22;16636;48.394;15.468;2023-03-14T15:24:41;11.10;99.90
29725;DHT22;16636;48.394;15.468;2023-03-14T15:27:14;11.30;99.90
29725;DHT22;16636;48.394;15.468;2023-03-14T15:29:41;11.40;99.90
29725;DHT22;16636;48.394;15.468;2023-03-14T15:32:16;11.60;99.90
29725;DHT22;16636;48.394;15.468;2023-03-14T15:34:43;11.90;99.90
29725;DHT22;16636;48.394;15.468;2023-03-14T15:37:13;12.10;99.90
29725;DHT22;16636;48.394;15.468;2023-03-14T15:39:41;12.10;99.90
29725;DHT22;16636;48.394;15.468;2023-03-14T15:42:07;12.10;99.90
29725;DHT22;16636;48.394;15.468;2023-03-14T15:44:33;12.00;99.90
29725;DHT22;16636;48.394;15.468;2023-03-14T15:46:59;12.00;99.90
29725;DHT22;16636;48.394;15.468;2023-03-14T15:49:25;12.00;99.90
29725;DHT22;16636;48.394;15.468;2023-03-14T15:51:51;12.00;99.90
29725;DHT22;16636;48.394;15.468;2023-03-14T15:54:17;12.00;99.90
29725;DHT22;16636;48.394;15.468;2023-03-14T15:56:42;12.00;99.90
29725;DHT22;16636;48.394;15.468;2023-03-14T15:59:08;11.90;99.90
29725;DHT22;16636;48.394;15.468;2023-03-14T16:01:34;11.90;99.90
29725;DHT22;16636;48.394;15.468;2023-03-14T16:04:00;11.90;99.90
29725;DHT22;16636;48.394;15.468;2023-03-14T16:06:27;11.90;99.90
29725;DHT22;16636;48.394;15.468;2023-03-14T16:08:53;11.90;99.90
29725;DHT22;16636;48.394;15.468;2023-03-14T16:11:19;11.80;99.90
29725;DHT22;16636;48.394;15.468;2023-03-14T16:13:45;11.80;99.90
29725;DHT22;16636;48.394;15.468;2023-03-14T16:16:12;11.80;99.90
29725;DHT22;16636;48.394;15.468;2023-03-14T16:18:38;11.80;99.90
29725;DHT22;16636;48.394;15.468;2023-03-14T16:21:05;11.70;99.90
29725;DHT22;16636;48.394;15.468;2023-03-14T16:23:31;11.70;99.90
29725;DHT22;16636;48.394;15.468;2023-03-14T16:25:57;11.70;99.90
29725;DHT22;16636;48.394;15.468;2023-03-14T16:28:24;11.70;99.90
29725;DHT22;16636;48.394;15.468;2023-03-14T16:30:50;11.70;99.90
29725;DHT22;16636;48.394;15.468;2023-03-14T16:33:16;11.70;99.90
29725;DHT22;16636;48.394;15.468;2023-03-14T16:35:55;11.70;99.90
29725;DHT22;16636;48.394;15.468;2023-03-14T16:38:21;11.70;99.90
29725;DHT22;16636;48.394;15.468;2023-03-14T16:40:55;11.70;99.90
29725;DHT22;16636;48.394;15.468;2023-03-14T16:43:20;11.70;99.90
29725;DHT22;16636;48.394;15.468;2023-03-14T16:45:48;11.70;99.90
29725;DHT22;16636;48.394;15.468;2023-03-14T16:48:14;11.70;99.90
29725;DHT22;16636;48.394;15.468;2023-03-14T16:50:40;11.70;99.90
29725;DHT22;16636;48.394;15.468;2023-03-14T16:53:06;11.70;99.90
29725;DHT22;16636;48.394;15.468;2023-03-14T16:55:32;11.60;99.90